Aviation Digital Data Service (ADDS)

Output produced by METARs form (1556 UTC 18 August 2019)
found at http://www.aviationweather.gov/metar/data/
 
Forecast for: LROP (BUCHAREST/OTOPEN, RO)
Text: TAF LROP 181100Z 1812/1912 VRB04KT CAVOK
Forecast period: 1200 UTC 18 August 2019 to 0700 UTC 19 August 2019
Forecast type: FROM: standard forecast or significant change
Winds: variable direction winds at 5 MPH (4 knots; 2.1 m/s)
Visibility: 6 or more miles 10+ km)
Ceiling: unknown
Clouds: missing
Weather: NSW  (no significant weather)
Text: BECMG 1907/1909 05010KT
Forecast period: 0700 to 1200 UTC 19 August 2019
Forecast type: BECOMING: Conditions expected to become as follows by 0900 UTC 19 August 2019
Winds: from the NE (50 degrees) at 12 MPH (10 knots; 5.1 m/s)
Visibility: 6 or more miles 10+ km)
Ceiling: unknown
Clouds: missing
Weather: NSW  (no significant weather)